Time;durP1;ratioP1;P1;durP2;ratioP2;P2;SDS_P1;SDS_P2;PMS_P1;PMS_P2;Temp;Humidity;BMP_temperature;BMP_pressure;BME280_temperature;BME280_humidity;BME280_pressure;Samples;Min_cycle;Max_cycle;Signal;HPM_P1;HPM_P2
2021/04/15 00:01:22;;;;;;;17.20;14.07;;;3.70;99.90;;;;;;4918320;29;20329;-81
2021/04/15 00:04:00;;;;;;;15.17;12.67;;;3.80;99.90;;;;;;4914696;29;20207;-80
2021/04/15 00:06:30;;;;;;;14.27;12.43;;;3.70;99.90;;;;;;4919012;29;20212;-82
2021/04/15 00:09:01;;;;;;;13.47;11.97;;;3.70;99.90;;;;;;4922156;29;20204;-80
2021/04/15 00:11:32;;;;;;;12.33;10.80;;;3.70;99.90;;;;;;4918563;29;20799;-81
2021/04/15 00:14:00;;;;;;;15.60;11.63;;;3.80;99.90;;;;;;4922589;29;20370;-81
2021/04/15 00:16:30;;;;;;;13.13;10.00;;;3.80;99.90;;;;;;4937246;28;20474;-82
2021/04/15 00:19:00;;;;;;;12.73;11.50;;;3.70;99.90;;;;;;4947979;28;20195;-81
2021/04/15 00:21:28;;;;;;;13.47;12.07;;;3.70;99.90;;;;;;4927893;29;20211;-80
2021/04/15 00:23:57;;;;;;;14.00;10.73;;;3.70;99.90;;;;;;4932853;29;20239;-81
2021/04/15 00:26:28;;;;;;;13.67;11.60;;;3.80;99.90;;;;;;4917685;29;20208;-84
2021/04/15 00:28:56;;;;;;;15.57;11.83;;;3.70;99.90;;;;;;4916001;28;20688;-81
2021/04/15 00:31:26;;;;;;;9.63;8.60;;;3.70;99.90;;;;;;4916720;29;20594;-82
2021/04/15 00:33:54;;;;;;;13.47;11.30;;;3.80;99.90;;;;;;4913938;29;20271;-81
2021/04/15 00:36:25;;;;;;;13.43;11.20;;;3.70;99.90;;;;;;4913468;29;20303;-81
2021/04/15 00:38:54;;;;;;;12.93;11.63;;;3.70;99.90;;;;;;4916446;28;20198;-82
2021/04/15 00:41:23;;;;;;;12.87;11.43;;;3.70;99.90;;;;;;4915891;29;21213;-81
2021/04/15 00:43:51;;;;;;;11.07;8.97;;;3.70;99.90;;;;;;4915367;29;20282;-83
2021/04/15 00:46:36;;;;;;;13.67;12.30;;;3.70;99.90;;;;;;4914250;29;20214;-81
2021/04/15 00:49:05;;;;;;;12.43;11.13;;;3.70;99.90;;;;;;4915115;29;20223;-83
2021/04/15 00:51:36;;;;;;;14.20;11.90;;;3.70;99.90;;;;;;4917845;29;20202;-81
2021/04/15 00:54:07;;;;;;;15.60;13.00;;;3.70;99.90;;;;;;4916763;28;20211;-82
2021/04/15 00:56:36;;;;;;;14.57;11.80;;;3.60;99.90;;;;;;4916929;28;20211;-81
2021/04/15 00:59:06;;;;;;;16.53;13.30;;;3.60;99.90;;;;;;4916984;29;20199;-82
2021/04/15 01:01:35;;;;;;;16.10;14.40;;;3.70;99.90;;;;;;4912547;29;20682;-83
2021/04/15 01:04:02;;;;;;;15.20;13.00;;;3.70;99.90;;;;;;4915337;29;20498;-81
2021/04/15 01:06:30;;;;;;;17.70;14.43;;;3.70;99.90;;;;;;4914862;29;20219;-82
2021/04/15 01:09:00;;;;;;;13.80;12.17;;;3.70;99.90;;;;;;4917830;28;20207;-83
2021/04/15 01:11:47;;;;;;;14.80;13.30;;;3.60;99.90;;;;;;4913835;29;20200;-82
2021/04/15 01:14:23;;;;;;;17.77;14.80;;;3.60;99.90;;;;;;4918665;29;20768;-82
2021/04/15 01:16:58;;;;;;;15.30;12.87;;;3.60;99.90;;;;;;4923369;29;20369;-82
2021/04/15 01:20:05;;;;;;;15.30;13.13;;;3.60;99.90;;;;;;4921269;29;20211;-83
2021/04/15 01:22:49;;;;;;;16.17;13.20;;;3.60;99.90;;;;;;4914434;29;20207;-82
2021/04/15 01:25:29;;;;;;;15.30;13.77;;;3.60;99.90;;;;;;4922695;29;20276;-81
2021/04/15 01:28:06;;;;;;;14.57;12.97;;;3.70;99.90;;;;;;4915311;29;20243;-82
2021/04/15 01:30:39;;;;;;;23.03;18.53;;;3.60;99.90;;;;;;4922831;28;20215;-80
2021/04/15 01:33:13;;;;;;;20.23;17.37;;;3.60;99.90;;;;;;4915335;29;20408;-81
2021/04/15 01:35:50;;;;;;;20.17;16.90;;;3.60;99.90;;;;;;4915149;29;20953;-81
2021/04/15 01:38:24;;;;;;;17.07;15.17;;;3.60;99.90;;;;;;4915705;28;20229;-81
2021/04/15 01:40:57;;;;;;;17.70;15.80;;;3.60;99.90;;;;;;4913889;28;20698;-82
2021/04/15 01:43:33;;;;;;;17.23;15.37;;;3.60;99.90;;;;;;4912792;29;20211;-81
2021/04/15 01:46:05;;;;;;;24.00;19.63;;;3.50;99.90;;;;;;4918366;28;20739;-82
2021/04/15 01:48:39;;;;;;;23.77;20.93;;;3.50;99.90;;;;;;4918000;29;20568;-81
2021/04/15 01:51:10;;;;;;;20.90;17.13;;;3.50;99.90;;;;;;4930297;29;20203;-81
2021/04/15 01:53:43;;;;;;;27.97;21.37;;;3.50;99.90;;;;;;4924559;29;20852;-81
2021/04/15 01:56:15;;;;;;;25.47;22.47;;;3.60;99.90;;;;;;4929772;29;20247;-82
2021/04/15 01:58:45;;;;;;;29.57;21.57;;;3.50;99.90;;;;;;4917401;29;20586;-81
2021/04/15 02:01:18;;;;;;;30.20;22.77;;;3.60;99.90;;;;;;4918282;29;20670;-82
2021/04/15 02:03:48;;;;;;;33.17;24.63;;;3.50;99.90;;;;;;4915907;29;20210;-81
2021/04/15 02:06:22;;;;;;;33.97;25.17;;;3.50;99.90;;;;;;4918670;29;20210;-82
2021/04/15 02:08:53;;;;;;;27.90;22.57;;;3.50;99.90;;;;;;4917827;29;20202;-82
2021/04/15 02:11:39;;;;;;;29.50;22.67;;;3.50;99.90;;;;;;4921295;29;20210;-81
2021/04/15 02:14:09;;;;;;;26.33;21.87;;;3.50;99.90;;;;;;4914315;29;20322;-82
2021/04/15 02:16:41;;;;;;;23.43;17.57;;;3.50;99.90;;;;;;4917204;29;20200;-80
2021/04/15 02:19:14;;;;;;;21.57;16.17;;;3.50;99.90;;;;;;4915809;29;20213;-81
2021/04/15 02:21:48;;;;;;;17.70;14.63;;;3.50;99.90;;;;;;4916489;29;20223;-81
2021/04/15 02:24:25;;;;;;;18.73;16.33;;;3.50;99.90;;;;;;4914518;28;20305;-81
2021/04/15 02:26:58;;;;;;;20.03;16.03;;;3.50;99.90;;;;;;4915934;29;20215;-82
2021/04/15 02:29:27;;;;;;;23.40;17.97;;;3.50;99.90;;;;;;4919067;29;20206;-81
2021/04/15 02:32:00;;;;;;;23.67;18.13;;;3.40;99.90;;;;;;4918124;29;20223;-82
2021/04/15 02:34:32;;;;;;;23.30;16.00;;;3.40;99.90;;;;;;4921952;28;20450;-82
2021/04/15 02:37:07;;;;;;;28.23;20.47;;;3.40;99.90;;;;;;4937081;28;20265;-79
2021/04/15 02:39:38;;;;;;;23.83;18.03;;;3.40;99.90;;;;;;4921796;28;20567;-82
2021/04/15 02:42:09;;;;;;;28.93;23.27;;;3.40;99.90;;;;;;4924198;28;20610;-81
2021/04/15 02:44:46;;;;;;;28.73;23.97;;;3.40;99.90;;;;;;4916694;29;20427;-82
2021/04/15 02:47:21;;;;;;;29.43;21.67;;;3.30;99.90;;;;;;4919028;29;20225;-82
2021/04/15 02:49:53;;;;;;;28.83;21.43;;;3.30;99.90;;;;;;4916962;29;20301;-81
2021/04/15 02:52:23;;;;;;;31.03;23.83;;;3.30;99.90;;;;;;4937940;28;20218;-81
2021/04/15 02:54:54;;;;;;;31.07;23.37;;;3.30;99.90;;;;;;4935449;28;20195;-82
2021/04/15 02:57:24;;;;;;;31.13;24.87;;;3.40;99.90;;;;;;4944443;28;20317;-80
2021/04/15 02:59:55;;;;;;;26.10;21.70;;;3.30;99.90;;;;;;4923141;28;20329;-80
2021/04/15 03:02:27;;;;;;;25.47;20.10;;;3.30;99.90;;;;;;4920810;29;20213;-82
2021/04/15 03:04:58;;;;;;;27.50;22.00;;;3.30;99.90;;;;;;4916706;29;20567;-79
2021/04/15 03:07:28;;;;;;;32.73;20.53;;;3.30;99.90;;;;;;4917643;29;20708;-81
2021/04/15 03:09:58;;;;;;;28.50;20.87;;;3.30;99.90;;;;;;4919071;29;20552;-83
2021/04/15 03:12:34;;;;;;;26.80;20.57;;;3.30;99.90;;;;;;4919844;29;20206;-82
2021/04/15 03:15:09;;;;;;;17.33;12.53;;;3.30;99.90;;;;;;4916040;29;20207;-82
2021/04/15 03:17:42;;;;;;;22.40;16.90;;;3.30;99.90;;;;;;4922619;29;20235;-83
2021/04/15 03:20:14;;;;;;;21.63;17.07;;;3.30;99.90;;;;;;4924934;28;20215;-82
2021/04/15 03:22:48;;;;;;;21.43;18.37;;;3.30;99.90;;;;;;4925810;28;20215;-82
2021/04/15 03:25:16;;;;;;;19.03;15.23;;;3.30;99.90;;;;;;4921626;29;20672;-81
2021/04/15 03:27:54;;;;;;;26.60;20.47;;;3.30;99.90;;;;;;4919903;29;20278;-82
2021/04/15 03:30:27;;;;;;;19.30;14.53;;;3.30;99.90;;;;;;4923130;29;20202;-81
2021/04/15 03:33:05;;;;;;;25.17;19.30;;;3.30;99.90;;;;;;4917140;29;20216;-82
2021/04/15 03:35:37;;;;;;;19.53;16.07;;;3.30;99.90;;;;;;4926499;29;20269;-83
2021/04/15 03:38:10;;;;;;;17.63;14.57;;;3.20;99.90;;;;;;4920900;29;20230;-82
2021/04/15 03:40:43;;;;;;;27.13;20.73;;;3.20;99.90;;;;;;4919232;29;20218;-82
2021/04/15 03:43:15;;;;;;;24.40;20.07;;;3.20;99.90;;;;;;4920364;29;20248;-81
2021/04/15 03:45:46;;;;;;;24.77;20.37;;;3.20;99.90;;;;;;4918803;29;20219;-81
2021/04/15 03:48:20;;;;;;;23.43;18.63;;;3.00;99.90;;;;;;4925504;28;20221;-83
2021/04/15 03:50:51;;;;;;;28.07;20.40;;;3.10;99.90;;;;;;4920148;28;20211;-83
2021/04/15 03:53:23;;;;;;;27.63;22.43;;;3.10;99.90;;;;;;4924648;29;20218;-81
2021/04/15 03:55:56;;;;;;;27.67;21.37;;;3.10;99.90;;;;;;4917664;29;20207;-81
2021/04/15 03:58:28;;;;;;;28.03;22.17;;;3.10;99.90;;;;;;4921136;29;20341;-82
2021/04/15 04:01:02;;;;;;;28.03;22.03;;;3.10;99.90;;;;;;4921717;28;20225;-81
2021/04/15 04:03:32;;;;;;;27.57;20.30;;;3.10;99.90;;;;;;4918921;29;20672;-82
2021/04/15 04:06:05;;;;;;;24.00;18.97;;;3.10;99.90;;;;;;4916375;29;20202;-82
2021/04/15 04:08:42;;;;;;;19.30;12.47;;;3.00;99.90;;;;;;4914823;29;20740;-83
2021/04/15 04:11:14;;;;;;;29.23;21.17;;;3.00;99.90;;;;;;4917494;29;20217;-81
2021/04/15 04:13:46;;;;;;;24.07;18.80;;;3.00;99.90;;;;;;4917682;29;20215;-81
2021/04/15 04:16:22;;;;;;;24.53;17.70;;;3.00;99.90;;;;;;4918416;28;20202;-81
2021/04/15 04:18:57;;;;;;;25.73;19.13;;;3.00;99.90;;;;;;4923725;29;20225;-82
2021/04/15 04:21:35;;;;;;;16.63;12.33;;;2.90;99.90;;;;;;4917343;29;20231;-81
2021/04/15 04:24:10;;;;;;;32.87;22.77;;;2.90;99.90;;;;;;4919684;29;20202;-82
2021/04/15 04:26:47;;;;;;;30.07;23.33;;;2.90;99.90;;;;;;4923042;28;20597;-83
2021/04/15 04:29:35;;;;;;;29.93;22.10;;;3.00;99.90;;;;;;4924606;29;20229;-82
2021/04/15 04:32:05;;;;;;;8.30;7.30;;;2.90;99.90;;;;;;4917987;29;20744;-82
2021/04/15 04:34:35;;;;;;;13.17;11.77;;;2.90;99.90;;;;;;4917369;29;20208;-81
2021/04/15 04:37:03;;;;;;;14.73;12.00;;;3.00;99.90;;;;;;4923486;28;20230;-82
2021/04/15 04:39:31;;;;;;;14.17;11.57;;;2.90;99.90;;;;;;4918317;29;20211;-80
2021/04/15 04:42:15;;;;;;;21.37;17.53;;;2.90;99.90;;;;;;4920401;28;20237;-82
2021/04/15 04:44:48;;;;;;;23.00;17.47;;;3.00;99.90;;;;;;4914702;29;20687;-79
2021/04/15 04:47:37;;;;;;;25.10;19.93;;;3.00;99.90;;;;;;4914858;29;20277;-82
2021/04/15 04:50:09;;;;;;;27.23;21.93;;;3.00;99.90;;;;;;4914543;29;20233;-82
2021/04/15 04:52:37;;;;;;;30.47;23.07;;;3.10;99.90;;;;;;4917044;28;20205;-82
2021/04/15 04:55:21;;;;;;;24.93;18.20;;;3.00;99.90;;;;;;4916210;29;20343;-81
2021/04/15 04:57:49;;;;;;;22.77;17.23;;;3.00;99.90;;;;;;4920763;28;20246;-83
2021/04/15 05:00:20;;;;;;;23.77;17.47;;;3.00;99.90;;;;;;4915208;29;20750;-82
2021/04/15 05:02:51;;;;;;;25.13;18.43;;;3.00;99.90;;;;;;4911901;29;20834;-81
2021/04/15 05:05:24;;;;;;;28.13;21.87;;;3.00;99.90;;;;;;4918038;29;20222;-82
2021/04/15 05:07:59;;;;;;;23.13;16.20;;;3.10;99.90;;;;;;4910566;29;20237;-81
2021/04/15 05:10:29;;;;;;;31.33;24.40;;;3.10;99.90;;;;;;4914528;28;20214;-82
2021/04/15 05:13:06;;;;;;;25.53;19.57;;;3.10;99.90;;;;;;4916866;28;20285;-82
2021/04/15 05:15:34;;;;;;;26.47;20.37;;;3.00;99.90;;;;;;4913312;29;20210;-80
2021/04/15 05:18:02;;;;;;;27.47;20.37;;;3.10;99.90;;;;;;4909017;28;20230;-82
2021/04/15 05:20:31;;;;;;;30.27;22.30;;;3.10;99.90;;;;;;4916323;28;20635;-82
2021/04/15 05:23:04;;;;;;;27.60;20.77;;;3.10;99.90;;;;;;4906222;29;20244;-82
2021/04/15 05:25:37;;;;;;;28.63;21.73;;;3.20;99.90;;;;;;4919158;28;20272;-81
2021/04/15 05:28:09;;;;;;;27.53;21.97;;;3.10;99.90;;;;;;4912337;29;20291;-82
2021/04/15 05:30:40;;;;;;;27.03;19.37;;;3.20;99.90;;;;;;4924955;28;20218;-82
2021/04/15 05:33:12;;;;;;;26.07;19.83;;;3.20;99.90;;;;;;4923791;29;20509;-83
2021/04/15 05:35:48;;;;;;;31.47;22.20;;;3.20;99.90;;;;;;4939123;28;20230;-81
2021/04/15 05:38:16;;;;;;;30.70;22.10;;;3.20;99.90;;;;;;4926063;28;20267;-83
2021/04/15 05:40:49;;;;;;;29.17;21.63;;;3.30;99.90;;;;;;4929412;29;20214;-82
2021/04/15 05:43:28;;;;;;;29.00;21.83;;;3.30;99.90;;;;;;4921281;29;20217;-83
2021/04/15 05:46:06;;;;;;;29.77;22.33;;;3.30;99.90;;;;;;4929328;28;20217;-80
2021/04/15 05:48:36;;;;;;;26.93;19.67;;;3.40;99.90;;;;;;4905584;29;20573;-82
2021/04/15 05:51:19;;;;;;;26.37;19.70;;;3.60;99.90;;;;;;4912969;28;20222;-82
2021/04/15 05:53:52;;;;;;;26.77;20.10;;;3.50;99.90;;;;;;4908786;29;20214;-83
2021/04/15 05:56:22;;;;;;;27.87;21.27;;;3.50;99.90;;;;;;4912870;28;20210;-83
2021/04/15 05:59:09;;;;;;;28.80;21.13;;;3.50;99.90;;;;;;4937693;28;20282;-82
2021/04/15 06:01:42;;;;;;;22.93;18.27;;;3.60;99.90;;;;;;4941654;28;20221;-84
2021/04/15 06:04:19;;;;;;;25.17;19.90;;;3.60;99.90;;;;;;4936598;28;20234;-82
2021/04/15 06:06:48;;;;;;;23.27;17.53;;;3.60;99.90;;;;;;4939292;28;21109;-81
2021/04/15 06:09:15;;;;;;;8.33;7.47;;;3.70;99.90;;;;;;4936580;28;20243;-83
2021/04/15 06:11:58;;;;;;;11.40;9.23;;;3.70;99.90;;;;;;4935235;28;20203;-81
2021/04/15 06:14:37;;;;;;;15.70;12.27;;;3.70;99.90;;;;;;4937004;28;20191;-82
2021/04/15 06:17:26;;;;;;;12.97;10.70;;;3.70;99.90;;;;;;4929200;28;20493;-82
2021/04/15 06:19:58;;;;;;;13.00;10.80;;;3.80;99.90;;;;;;4928317;28;20807;-81
2021/04/15 06:22:30;;;;;;;12.00;10.50;;;3.90;99.90;;;;;;4909323;29;20405;-84
2021/04/15 06:25:13;;;;;;;10.73;8.13;;;3.80;99.90;;;;;;4920041;28;20327;-83
2021/04/15 06:27:43;;;;;;;10.47;7.53;;;3.80;99.90;;;;;;4916832;29;20219;-81
2021/04/15 06:30:16;;;;;;;12.67;10.13;;;3.90;99.90;;;;;;4932507;28;20204;-83
2021/04/15 06:32:53;;;;;;;13.10;10.63;;;3.90;99.90;;;;;;4930081;28;20674;-84
2021/04/15 06:35:23;;;;;;;11.00;9.53;;;4.00;99.90;;;;;;4934980;28;20199;-83
2021/04/15 06:37:55;;;;;;;13.37;9.67;;;4.00;99.90;;;;;;4933812;28;20298;-82
2021/04/15 06:40:56;;;;;;;13.00;10.50;;;4.10;99.90;;;;;;4932181;28;20191;-84
2021/04/15 06:44:07;;;;;;;11.73;9.67;;;4.20;99.90;;;;;;4910437;29;20216;-84
2021/04/15 06:46:46;;;;;;;11.27;9.17;;;4.20;99.90;;;;;;4912096;29;20204;-84
2021/04/15 06:49:47;;;;;;;13.33;9.97;;;4.30;99.90;;;;;;4913283;29;20379;-82
2021/04/15 06:52:20;;;;;;;9.17;7.57;;;4.40;99.90;;;;;;4907915;29;20233;-83
2021/04/15 06:55:13;;;;;;;10.80;9.00;;;4.60;99.90;;;;;;4914220;29;20231;-84
2021/04/15 06:58:25;;;;;;;11.57;9.17;;;4.60;99.90;;;;;;4906000;29;20204;-83
2021/04/15 07:01:02;;;;;;;12.30;9.97;;;4.70;99.90;;;;;;4851895;29;20635;-81
2021/04/15 07:03:54;;;;;;;10.83;9.67;;;4.80;99.90;;;;;;4921486;28;20214;-83
2021/04/15 07:06:53;;;;;;;10.80;8.30;;;4.80;99.90;;;;;;4925801;29;20562;-82
2021/04/15 07:09:54;;;;;;;11.03;9.23;;;4.80;99.90;;;;;;4907120;29;20269;-83
2021/04/15 07:13:00;;;;;;;10.47;8.97;;;4.80;99.90;;;;;;4912610;29;20214;-82
2021/04/15 07:15:37;;;;;;;10.50;9.40;;;4.80;99.90;;;;;;4916998;28;20264;-83
2021/04/15 07:18:32;;;;;;;9.73;8.70;;;4.90;99.90;;;;;;4913179;28;20389;-83
2021/04/15 07:21:20;;;;;;;8.57;7.70;;;4.90;99.90;;;;;;4914347;29;20209;-82
2021/04/15 07:24:27;;;;;;;8.27;7.03;;;5.00;99.90;;;;;;4908748;28;20220;-82
2021/04/15 07:27:11;;;;;;;7.40;6.67;;;4.90;99.90;;;;;;4907003;29;20414;-84
2021/04/15 07:30:19;;;;;;;7.37;6.70;;;4.90;99.90;;;;;;4922451;28;20264;-82
2021/04/15 07:33:02;;;;;;;6.80;6.03;;;4.90;99.90;;;;;;4925251;28;20294;-81
2021/04/15 07:35:39;;;;;;;7.87;6.80;;;5.00;99.90;;;;;;4915729;29;20205;-82
2021/04/15 07:38:38;;;;;;;6.97;6.27;;;5.20;99.90;;;;;;4919623;28;20571;-82
2021/04/15 07:41:30;;;;;;;7.13;6.30;;;5.10;99.90;;;;;;4912121;28;20213;-82
2021/04/15 07:44:27;;;;;;;6.20;5.60;;;5.20;99.90;;;;;;4912472;28;20220;-83
2021/04/15 07:47:11;;;;;;;6.03;5.43;;;5.20;99.90;;;;;;4909095;28;20727;-83
2021/04/15 07:50:22;;;;;;;5.97;5.47;;;5.10;99.90;;;;;;4911062;28;20341;-83
2021/04/15 07:53:22;;;;;;;6.20;5.60;;;5.20;99.90;;;;;;4925785;28;20207;-83
2021/04/15 07:56:18;;;;;;;7.17;6.00;;;5.20;99.90;;;;;;4920173;28;20630;-83
2021/04/15 07:59:10;;;;;;;5.83;5.20;;;5.30;99.90;;;;;;4917345;28;20238;-82
2021/04/15 08:02:03;;;;;;;6.80;5.80;;;5.40;99.90;;;;;;4925007;28;20210;-81
2021/04/15 08:05:05;;;;;;;5.73;5.23;;;5.30;99.90;;;;;;4921277;28;20214;-84
2021/04/15 08:07:51;;;;;;;5.90;5.30;;;5.30;99.90;;;;;;4880304;29;20259;-83
2021/04/15 08:10:54;;;;;;;5.97;5.37;;;5.40;99.90;;;;;;4910729;29;20232;-84
2021/04/15 08:13:41;;;;;;;5.17;4.70;;;5.30;99.90;;;;;;4898904;28;20276;-81
2021/04/15 08:16:37;;;;;;;5.90;5.40;;;5.30;99.90;;;;;;4906064;28;20217;-82
2021/04/15 08:19:34;;;;;;;5.43;4.93;;;5.30;99.90;;;;;;4892911;29;21183;-80
2021/04/15 08:22:09;;;;;;;6.20;5.30;;;5.30;99.90;;;;;;4923557;28;20475;-82
2021/04/15 08:24:50;;;;;;;6.00;5.40;;;5.50;99.90;;;;;;4912008;29;20229;-81
2021/04/15 08:27:59;;;;;;;6.13;5.47;;;5.70;99.90;;;;;;4910897;29;20214;-83
2021/04/15 08:30:38;;;;;;;6.17;5.60;;;5.60;99.90;;;;;;4912211;28;20213;-84
2021/04/15 08:33:24;;;;;;;5.67;5.00;;;5.70;99.90;;;;;;4914647;28;20216;-84
2021/04/15 08:36:26;;;;;;;6.20;4.87;;;5.70;99.90;;;;;;4919549;29;20745;-84
2021/04/15 08:39:24;;;;;;;5.77;5.27;;;5.70;99.90;;;;;;4913595;29;20234;-84
2021/04/15 08:41:58;;;;;;;5.97;5.27;;;5.80;99.90;;;;;;4911604;29;20214;-80
2021/04/15 08:45:03;;;;;;;6.37;5.47;;;5.80;99.90;;;;;;4916546;29;20210;-83
2021/04/15 08:47:49;;;;;;;6.17;5.57;;;5.80;99.90;;;;;;4888263;29;20590;-84
2021/04/15 08:50:39;;;;;;;5.40;4.90;;;5.80;99.90;;;;;;4924382;28;20229;-83
2021/04/15 08:53:23;;;;;;;6.20;5.70;;;5.80;99.90;;;;;;4910154;29;20210;-81
2021/04/15 08:55:59;;;;;;;6.20;5.50;;;5.80;99.90;;;;;;4917633;28;20549;-84
2021/04/15 08:58:49;;;;;;;6.67;5.90;;;5.80;99.90;;;;;;4911260;29;21516;-83
2021/04/15 09:01:28;;;;;;;7.07;6.00;;;5.80;99.90;;;;;;4923230;28;20411;-82
2021/04/15 09:04:06;;;;;;;6.23;5.63;;;5.90;99.90;;;;;;4896564;28;20377;-83
2021/04/15 09:06:45;;;;;;;6.30;5.70;;;6.00;99.90;;;;;;4880461;28;20225;-81
2021/04/15 09:09:21;;;;;;;6.67;6.00;;;6.20;99.90;;;;;;4911141;29;20240;-81
2021/04/15 09:12:06;;;;;;;6.30;5.70;;;6.10;99.90;;;;;;4903638;29;20225;-84
2021/04/15 09:14:46;;;;;;;6.63;5.90;;;6.20;99.90;;;;;;4919881;28;20190;-83
2021/04/15 09:17:22;;;;;;;6.90;5.00;;;6.10;99.90;;;;;;4919821;28;20960;-82
2021/04/15 09:20:00;;;;;;;6.07;5.47;;;6.10;99.90;;;;;;4915599;29;20320;-81
2021/04/15 09:22:50;;;;;;;5.60;5.00;;;6.10;99.90;;;;;;4914373;29;20222;-83
2021/04/15 09:25:25;;;;;;;6.53;5.77;;;6.20;99.90;;;;;;4908255;29;20219;-83
2021/04/15 09:28:06;;;;;;;6.43;5.33;;;6.10;99.90;;;;;;4918449;28;20210;-81
2021/04/15 09:30:53;;;;;;;6.97;6.37;;;6.10;99.90;;;;;;4911517;28;20199;-82
2021/04/15 09:33:35;;;;;;;6.57;5.73;;;6.10;99.90;;;;;;4909850;29;20213;-82
2021/04/15 09:36:08;;;;;;;5.80;5.30;;;6.10;99.90;;;;;;4913774;28;20743;-83
2021/04/15 09:39:06;;;;;;;6.83;5.23;;;6.00;99.90;;;;;;4908785;28;20693;-82
2021/04/15 09:41:48;;;;;;;6.83;5.87;;;6.10;99.90;;;;;;4909016;28;20512;-82
2021/04/15 09:44:42;;;;;;;6.37;5.77;;;6.20;99.90;;;;;;4916004;28;20284;-82
2021/04/15 09:47:21;;;;;;;6.53;5.50;;;6.20;99.90;;;;;;4911784;29;21094;-82
2021/04/15 09:49:58;;;;;;;7.17;6.47;;;6.10;99.90;;;;;;4906379;28;20812;-82
2021/04/15 09:52:47;;;;;;;7.00;6.30;;;6.20;99.90;;;;;;4908226;29;20206;-83
2021/04/15 09:55:31;;;;;;;6.87;6.07;;;6.20;99.90;;;;;;4910019;28;20471;-83
2021/04/15 09:58:11;;;;;;;6.50;5.90;;;6.30;99.90;;;;;;4909839;28;20222;-81
2021/04/15 10:00:44;;;;;;;6.33;5.73;;;6.40;99.90;;;;;;4910703;28;20706;-83
2021/04/15 10:03:40;;;;;;;6.70;5.60;;;6.50;99.90;;;;;;4913712;29;20199;-81
2021/04/15 10:06:17;;;;;;;5.80;5.30;;;6.60;99.90;;;;;;4914390;29;20223;-82
2021/04/15 10:09:07;;;;;;;6.57;5.87;;;6.60;99.80;;;;;;4907606;29;20989;-82
2021/04/15 10:11:49;;;;;;;6.23;5.63;;;6.60;99.90;;;;;;4917198;28;20477;-82
2021/04/15 10:14:41;;;;;;;6.37;5.57;;;6.60;99.90;;;;;;4906385;28;20469;-82
2021/04/15 10:17:25;;;;;;;6.57;5.97;;;6.70;99.90;;;;;;4895466;29;20692;-83
2021/04/15 10:20:36;;;;;;;6.37;5.73;;;6.60;99.90;;;;;;4906539;28;20233;-82
2021/04/15 10:23:26;;;;;;;6.43;5.83;;;6.60;99.90;;;;;;4904622;29;20205;-83
2021/04/15 10:25:58;;;;;;;6.30;5.53;;;6.60;99.90;;;;;;4908807;28;20375;-82
2021/04/15 10:28:42;;;;;;;6.90;5.10;;;6.60;99.90;;;;;;4907723;29;20225;-84
2021/04/15 10:31:46;;;;;;;6.63;5.77;;;6.60;99.90;;;;;;4903774;29;20306;-81
2021/04/15 10:34:35;;;;;;;6.97;6.00;;;6.50;99.20;;;;;;4898280;29;20214;-83
2021/04/15 10:37:17;;;;;;;6.57;6.00;;;6.40;99.50;;;;;;4908711;29;20214;-83
2021/04/15 10:40:18;;;;;;;6.43;5.83;;;6.40;99.90;;;;;;4907507;29;20637;-83
2021/04/15 10:43:25;;;;;;;7.10;6.40;;;6.40;99.90;;;;;;4902893;29;20219;-82
2021/04/15 10:46:17;;;;;;;6.60;5.63;;;6.40;99.90;;;;;;4902443;29;20576;-84
2021/04/15 10:48:54;;;;;;;6.87;6.17;;;6.40;99.90;;;;;;4907430;28;20235;-81
2021/04/15 10:51:29;;;;;;;7.10;6.20;;;6.40;99.90;;;;;;4917654;29;20870;-83
2021/04/15 10:54:02;;;;;;;8.37;6.67;;;6.40;99.90;;;;;;4914152;29;20209;-83
2021/04/15 10:56:48;;;;;;;6.80;6.10;;;6.30;99.90;;;;;;4908637;29;20539;-83
2021/04/15 10:59:27;;;;;;;6.77;6.03;;;6.50;99.90;;;;;;4906585;29;21067;-82
2021/04/15 11:02:14;;;;;;;7.20;6.50;;;6.40;99.90;;;;;;4906601;29;20641;-83
2021/04/15 11:04:44;;;;;;;6.80;6.10;;;6.40;99.90;;;;;;4927376;29;20285;-83
2021/04/15 11:07:17;;;;;;;7.73;6.63;;;6.40;99.90;;;;;;4930544;28;20211;-82
2021/04/15 11:09:47;;;;;;;7.10;6.40;;;6.60;99.90;;;;;;4933372;28;20299;-82
2021/04/15 11:12:23;;;;;;;7.40;6.37;;;6.40;99.90;;;;;;4906394;28;20237;-82
2021/04/15 11:15:14;;;;;;;7.80;7.03;;;6.40;99.90;;;;;;4912209;28;20215;-83
2021/04/15 11:17:45;;;;;;;6.63;5.80;;;6.40;99.90;;;;;;4916135;29;20207;-83
2021/04/15 11:20:26;;;;;;;7.10;6.40;;;6.30;99.90;;;;;;4908803;28;20227;-83
2021/04/15 11:23:05;;;;;;;7.27;6.57;;;6.30;99.90;;;;;;4912502;29;20388;-83
2021/04/15 11:25:36;;;;;;;6.53;5.93;;;6.40;99.90;;;;;;4915158;29;20266;-83
2021/04/15 11:28:11;;;;;;;6.43;5.83;;;6.40;99.90;;;;;;4913345;28;20214;-83
2021/04/15 11:30:45;;;;;;;8.27;6.50;;;6.30;99.90;;;;;;4913915;29;20374;-83
2021/04/15 11:33:39;;;;;;;7.43;6.53;;;6.40;99.90;;;;;;4922164;29;20210;-85
2021/04/15 11:36:15;;;;;;;7.57;5.90;;;6.40;99.90;;;;;;4913272;28;20229;-82
2021/04/15 11:38:45;;;;;;;7.23;6.40;;;6.40;99.90;;;;;;4911073;28;20221;-82
2021/04/15 11:41:20;;;;;;;6.93;6.23;;;6.40;99.90;;;;;;4926244;28;20198;-81
2021/04/15 11:43:50;;;;;;;6.90;6.20;;;6.60;99.90;;;;;;4928031;28;20219;-81
2021/04/15 11:46:21;;;;;;;6.87;6.13;;;6.50;99.90;;;;;;4911191;29;20206;-84
2021/04/15 11:49:06;;;;;;;7.03;6.43;;;6.60;99.90;;;;;;4899480;28;20511;-84
2021/04/15 11:51:41;;;;;;;6.60;5.90;;;6.60;99.90;;;;;;4921551;28;20207;-83
2021/04/15 11:54:26;;;;;;;9.13;6.50;;;6.70;99.90;;;;;;4914476;28;20479;-82
2021/04/15 11:56:57;;;;;;;6.63;6.03;;;6.70;99.90;;;;;;4907259;28;20332;-83
2021/04/15 11:59:29;;;;;;;7.10;5.90;;;6.80;99.90;;;;;;4912091;29;20858;-82
2021/04/15 12:02:20;;;;;;;5.80;5.23;;;6.80;99.90;;;;;;4910220;29;20211;-83
2021/04/15 12:05:12;;;;;;;7.50;6.10;;;6.90;99.90;;;;;;4907298;29;20255;-83
2021/04/15 12:07:46;;;;;;;6.10;5.50;;;6.90;99.90;;;;;;4908127;29;20213;-83
2021/04/15 12:10:15;;;;;;;6.67;6.03;;;6.90;98.20;;;;;;4922896;28;20299;-84
2021/04/15 12:12:50;;;;;;;7.57;5.97;;;6.80;99.50;;;;;;4926912;29;20283;-83
2021/04/15 12:15:39;;;;;;;7.83;6.53;;;6.90;99.90;;;;;;4921049;29;20401;-82
2021/04/15 12:18:14;;;;;;;7.03;6.33;;;6.80;99.90;;;;;;4909650;29;20208;-83
2021/04/15 12:20:50;;;;;;;7.80;6.63;;;6.80;99.90;;;;;;4920572;28;20821;-83
2021/04/15 12:23:27;;;;;;;7.03;6.23;;;6.70;99.90;;;;;;4923639;28;20199;-83
2021/04/15 12:26:21;;;;;;;6.60;5.97;;;6.70;99.90;;;;;;4928907;28;20735;-81
2021/04/15 12:28:56;;;;;;;8.50;6.73;;;6.80;99.90;;;;;;4915041;28;20505;-83
2021/04/15 12:31:29;;;;;;;8.03;6.60;;;6.60;99.90;;;;;;4918484;28;20230;-81
2021/04/15 12:34:38;;;;;;;9.30;7.13;;;6.50;99.90;;;;;;4923198;29;20215;-83
2021/04/15 12:37:12;;;;;;;9.23;8.10;;;6.40;99.90;;;;;;4906804;29;20572;-81
2021/04/15 12:40:11;;;;;;;8.47;7.57;;;6.50;99.90;;;;;;4930568;28;20321;-83
2021/04/15 12:42:42;;;;;;;9.10;7.97;;;6.50;99.90;;;;;;4919198;28;20861;-82
2021/04/15 12:45:15;;;;;;;9.70;8.70;;;6.30;99.90;;;;;;4913978;29;20488;-84
2021/04/15 12:47:44;;;;;;;8.37;7.57;;;6.40;99.90;;;;;;4912381;29;20720;-82
2021/04/15 12:50:32;;;;;;;9.63;7.90;;;6.40;99.90;;;;;;4914847;28;20231;-84
2021/04/15 12:53:01;;;;;;;9.43;7.97;;;6.30;99.90;;;;;;4902441;29;20563;-81
2021/04/15 12:55:29;;;;;;;8.67;7.37;;;6.40;99.90;;;;;;4907825;28;20436;-83
2021/04/15 12:57:58;;;;;;;10.37;8.33;;;6.40;99.90;;;;;;4904856;29;20244;-85
2021/04/15 13:00:42;;;;;;;8.90;8.03;;;6.30;99.90;;;;;;4913379;29;20430;-81
2021/04/15 13:03:21;;;;;;;10.27;8.53;;;6.40;99.90;;;;;;4911430;28;20489;-83
2021/04/15 13:06:10;;;;;;;9.97;8.40;;;6.50;99.90;;;;;;4913620;28;20596;-83
2021/04/15 13:08:48;;;;;;;9.60;8.60;;;6.50;99.90;;;;;;4917539;28;20205;-83
2021/04/15 13:11:46;;;;;;;9.23;8.27;;;6.60;99.90;;;;;;4910969;28;20646;-83
2021/04/15 13:14:17;;;;;;;11.13;8.43;;;6.50;99.90;;;;;;4835291;29;21173;-83
2021/04/15 13:16:54;;;;;;;9.53;8.40;;;6.50;99.90;;;;;;4899328;29;20225;-83
2021/04/15 13:19:50;;;;;;;10.67;7.87;;;6.50;99.90;;;;;;4910783;29;20321;-83
2021/04/15 13:22:32;;;;;;;12.13;8.97;;;6.50;99.90;;;;;;4904869;29;20625;-82
2021/04/15 13:25:20;;;;;;;10.20;9.03;;;6.60;99.90;;;;;;4905199;28;20603;-82
2021/04/15 13:28:10;;;;;;;11.27;9.63;;;6.50;99.90;;;;;;4909816;29;20209;-83
2021/04/15 13:30:59;;;;;;;11.53;9.37;;;6.70;99.90;;;;;;4911536;28;21053;-82
2021/04/15 13:34:03;;;;;;;10.43;9.10;;;6.70;99.90;;;;;;4921500;28;20225;-83
2021/04/15 13:36:32;;;;;;;10.00;9.00;;;6.70;99.90;;;;;;4911767;29;20202;-83
2021/04/15 13:39:08;;;;;;;9.90;8.87;;;6.70;99.90;;;;;;4912382;28;21128;-81
2021/04/15 13:42:06;;;;;;;10.93;9.30;;;6.80;99.90;;;;;;4913342;28;20277;-84
2021/04/15 13:45:11;;;;;;;10.90;9.77;;;6.80;99.90;;;;;;4916485;29;20797;-82
2021/04/15 13:47:52;;;;;;;10.00;9.00;;;6.80;99.90;;;;;;4914214;28;21024;-83